createdAt,value
2023-04-15T00:03:42.696Z,9.30
2023-04-15T00:07:45.963Z,9.20
2023-04-15T00:11:47.400Z,9.20
2023-04-15T00:15:48.702Z,9.30
2023-04-15T00:19:49.974Z,9.20
2023-04-15T00:23:53.368Z,9.10
2023-04-15T00:27:54.650Z,9.10
2023-04-15T00:31:59.655Z,9.10
2023-04-15T00:36:01.736Z,9.10
2023-04-15T00:40:06.486Z,9.10
2023-04-15T00:44:08.803Z,9.10
2023-04-15T00:48:11.501Z,9.20
2023-04-15T00:52:13.616Z,9.10
2023-04-15T00:56:16.250Z,8.90
2023-04-15T01:00:19.757Z,8.90
2023-04-15T01:04:21.467Z,8.90
2023-04-15T01:08:25.501Z,8.90
2023-04-15T01:12:28.268Z,8.90
2023-04-15T01:16:30.231Z,8.90
2023-04-15T01:20:31.595Z,9.00
2023-04-15T01:24:33.622Z,8.90
2023-04-15T01:28:35.892Z,8.80
2023-04-15T01:32:37.823Z,8.60
2023-04-15T01:36:39.124Z,8.60
2023-04-15T01:40:40.386Z,8.60
2023-04-15T01:44:41.645Z,8.60
2023-04-15T01:48:43.000Z,8.70
2023-04-15T01:52:44.304Z,8.60
2023-04-15T01:56:45.564Z,8.60
2023-04-15T02:00:47.469Z,8.50
2023-04-15T02:04:48.707Z,8.50
2023-04-15T02:08:50.097Z,8.40
2023-04-15T02:12:51.467Z,8.40
2023-04-15T02:16:52.874Z,8.40
2023-04-15T02:20:56.103Z,8.40
2023-04-15T02:24:57.565Z,8.40
2023-04-15T02:28:59.469Z,8.20
2023-04-15T02:33:01.367Z,8.30
2023-04-15T02:37:03.252Z,8.20
2023-04-15T02:41:04.794Z,8.40
2023-04-15T02:45:07.454Z,8.00
2023-04-15T02:49:08.723Z,8.00
2023-04-15T02:53:10.001Z,7.80
2023-04-15T02:57:12.412Z,7.90
2023-04-15T03:01:14.024Z,8.00
2023-04-15T03:05:15.760Z,8.20
2023-04-15T03:09:17.061Z,8.20
2023-04-15T03:13:18.770Z,8.10
2023-04-15T03:17:20.462Z,8.00
2023-04-15T03:21:23.399Z,7.90
2023-04-15T03:25:24.657Z,7.90
2023-04-15T03:29:26.103Z,7.70
2023-04-15T03:33:28.663Z,8.00
2023-04-15T03:37:30.043Z,8.10
2023-04-15T03:41:32.405Z,8.10
2023-04-15T03:45:33.786Z,7.90
2023-04-15T03:49:36.198Z,7.80
2023-04-15T03:53:37.518Z,7.70
2023-04-15T03:57:39.160Z,7.80
2023-04-15T04:01:40.686Z,7.70
2023-04-15T04:05:43.537Z,7.80
2023-04-15T04:09:47.016Z,7.80
2023-04-15T04:13:48.353Z,7.80
2023-04-15T04:17:49.687Z,7.80
2023-04-15T04:21:51.452Z,7.80
2023-04-15T04:25:53.310Z,7.90
2023-04-15T04:29:54.992Z,7.90
2023-04-15T04:33:56.378Z,7.80
2023-04-15T04:37:57.773Z,7.70
2023-04-15T04:41:59.045Z,7.80
2023-04-15T04:46:00.914Z,7.90
2023-04-15T04:50:03.010Z,7.80
2023-04-15T04:54:04.420Z,7.70
2023-04-15T04:58:06.403Z,7.70
2023-04-15T05:02:07.776Z,7.80
2023-04-15T05:06:10.024Z,7.70
2023-04-15T05:10:11.441Z,7.90
2023-04-15T05:14:12.787Z,7.80
2023-04-15T05:18:14.027Z,7.80
2023-04-15T05:22:15.714Z,7.80
2023-04-15T05:26:17.274Z,7.90
2023-04-15T05:30:18.606Z,7.80
2023-04-15T05:34:19.912Z,7.80
2023-04-15T05:38:21.380Z,7.90
2023-04-15T05:42:22.691Z,7.90
2023-04-15T05:46:24.113Z,8.00
2023-04-15T05:50:25.654Z,8.10
2023-04-15T05:54:27.469Z,8.20
2023-04-15T05:58:28.830Z,8.40
2023-04-15T06:02:31.018Z,8.50
2023-04-15T06:06:32.901Z,8.70
2023-04-15T06:10:36.113Z,8.90
2023-04-15T06:14:38.777Z,9.20
2023-04-15T06:18:40.146Z,9.40
2023-04-15T06:22:41.591Z,9.50
2023-04-15T06:26:42.877Z,9.70
2023-04-15T06:30:44.214Z,9.80
2023-04-15T06:34:45.474Z,9.90
2023-04-15T06:38:46.954Z,10.00
2023-04-15T06:42:48.376Z,10.00
2023-04-15T06:46:49.675Z,10.20
2023-04-15T06:50:51.932Z,10.10
2023-04-15T06:54:53.269Z,10.10
2023-04-15T06:58:54.558Z,10.00
2023-04-15T07:02:56.038Z,10.00
2023-04-15T07:06:57.349Z,10.10
2023-04-15T07:11:00.179Z,10.40
2023-04-15T07:15:01.694Z,10.80
2023-04-15T07:19:03.758Z,10.80
2023-04-15T07:23:05.649Z,10.80
2023-04-15T07:27:06.955Z,11.30
2023-04-15T07:31:08.513Z,11.40
2023-04-15T07:35:10.369Z,11.70
2023-04-15T07:39:11.848Z,11.60
2023-04-15T07:43:13.228Z,11.80
2023-04-15T07:47:14.602Z,11.50
2023-04-15T07:51:17.233Z,11.70
2023-04-15T07:55:19.552Z,11.70
2023-04-15T07:59:20.940Z,12.00
2023-04-15T08:03:28.407Z,12.30
2023-04-15T08:07:30.666Z,12.40
2023-04-15T08:11:32.090Z,12.40
2023-04-15T08:15:33.250Z,12.30
2023-04-15T08:19:35.032Z,12.50
2023-04-15T08:23:37.131Z,12.70
2023-04-15T08:27:38.295Z,12.70
2023-04-15T08:31:39.539Z,12.60
2023-04-15T08:35:40.952Z,12.60
2023-04-15T08:39:43.421Z,12.70
2023-04-15T08:43:48.483Z,12.90
2023-04-15T08:47:53.471Z,13.20
2023-04-15T08:51:56.994Z,13.10
2023-04-15T08:56:01.104Z,13.40
2023-04-15T09:00:04.782Z,13.50
2023-04-15T09:04:07.466Z,13.70
2023-04-15T09:08:09.000Z,13.90
2023-04-15T09:12:11.546Z,14.20
2023-04-15T09:16:14.108Z,13.90
2023-04-15T09:20:16.441Z,13.90
2023-04-15T09:24:17.979Z,14.00
2023-04-15T09:28:25.427Z,13.90
2023-04-15T09:32:26.626Z,13.70
2023-04-15T09:36:30.324Z,13.70
2023-04-15T09:40:41.715Z,13.90
2023-04-15T09:44:43.304Z,14.20
2023-04-15T09:48:45.804Z,14.00
2023-04-15T09:52:47.807Z,13.90
2023-04-15T09:56:50.077Z,14.00
2023-04-15T10:00:52.700Z,14.00
2023-04-15T10:04:54.042Z,13.90
2023-04-15T10:08:57.202Z,13.60
2023-04-15T10:12:59.036Z,13.70
2023-04-15T10:17:03.012Z,13.60
2023-04-15T10:21:05.407Z,13.40
2023-04-15T10:25:07.101Z,13.40
2023-04-15T10:29:10.045Z,13.30
2023-04-15T10:33:12.260Z,13.30
2023-04-15T10:37:17.221Z,13.70
2023-04-15T10:41:21.954Z,13.50
2023-04-15T10:45:26.718Z,13.70
2023-04-15T10:49:28.110Z,13.90
2023-04-15T10:53:30.390Z,13.80
2023-04-15T10:57:39.988Z,13.80
2023-04-15T11:01:55.770Z,13.90
2023-04-15T11:05:57.533Z,14.10
2023-04-15T11:09:58.831Z,14.00
2023-04-15T11:14:01.987Z,14.00
2023-04-15T11:18:27.742Z,14.20
2023-04-15T11:22:29.120Z,14.80
2023-04-15T11:26:30.296Z,15.10
2023-04-15T11:30:33.586Z,15.20
2023-04-15T11:34:37.528Z,15.60
2023-04-15T11:38:44.376Z,15.70
2023-04-15T11:42:49.494Z,15.50
2023-04-15T11:46:49.772Z,15.60
2023-04-15T11:50:55.833Z,15.20
2023-04-15T11:55:03.556Z,14.90
2023-04-15T11:59:04.700Z,14.70
2023-04-15T12:03:41.824Z,14.30
2023-04-15T12:08:00.071Z,14.10
2023-04-15T12:12:03.224Z,13.80
2023-04-15T12:16:04.653Z,13.70
2023-04-15T12:20:07.199Z,13.50
2023-04-15T12:24:10.719Z,13.20
2023-04-15T12:28:12.294Z,13.00
2023-04-15T12:32:15.812Z,12.90
2023-04-15T12:36:16.954Z,12.80
2023-04-15T12:40:20.484Z,12.80
2023-04-15T12:44:23.341Z,12.90
2023-04-15T12:48:24.787Z,12.80
2023-04-15T12:52:26.053Z,12.90
2023-04-15T12:56:27.212Z,12.80
2023-04-15T13:00:29.399Z,12.50
2023-04-15T13:04:31.691Z,12.60
2023-04-15T13:08:33.629Z,12.60
2023-04-15T13:12:36.048Z,12.60
2023-04-15T13:16:37.127Z,12.80
2023-04-15T13:20:38.417Z,12.90
2023-04-15T13:24:40.201Z,12.80
2023-04-15T13:28:41.429Z,12.60
2023-04-15T13:32:42.584Z,12.30
2023-04-15T13:36:43.788Z,12.10
2023-04-15T13:40:45.236Z,12.00
2023-04-15T13:44:46.437Z,11.90
2023-04-15T13:48:47.653Z,11.70
2023-04-15T13:52:48.830Z,11.60
2023-04-15T13:56:49.972Z,11.70
2023-04-15T14:00:51.185Z,11.60
2023-04-15T14:04:52.516Z,11.60
2023-04-15T14:08:54.491Z,11.80
2023-04-15T14:12:56.524Z,11.90
2023-04-15T14:16:58.031Z,11.90
2023-04-15T14:20:59.242Z,12.00
2023-04-15T14:25:01.907Z,12.20
2023-04-15T14:29:03.559Z,12.50
2023-04-15T14:33:05.476Z,12.60
2023-04-15T14:37:06.854Z,12.70
2023-04-15T14:41:09.218Z,12.90
2023-04-15T14:45:10.681Z,12.80
2023-04-15T14:49:11.878Z,12.80
2023-04-15T14:53:13.119Z,12.80
2023-04-15T14:57:14.668Z,12.70
2023-04-15T15:01:15.845Z,12.70
2023-04-15T15:05:17.091Z,12.70
2023-04-15T15:09:19.134Z,12.40
2023-04-15T15:13:20.293Z,12.30
2023-04-15T15:17:21.658Z,12.40
2023-04-15T15:21:23.117Z,12.30
2023-04-15T15:25:24.249Z,12.40
2023-04-15T15:29:25.414Z,12.60
2023-04-15T15:33:27.658Z,12.60
2023-04-15T15:37:30.627Z,12.80
2023-04-15T15:41:32.780Z,12.80
2023-04-15T15:45:35.049Z,12.70
2023-04-15T15:49:36.213Z,12.60
2023-04-15T15:53:39.838Z,12.30
2023-04-15T15:57:41.078Z,11.90
2023-04-15T16:01:42.895Z,12.00
2023-04-15T16:05:44.129Z,11.90
2023-04-15T16:09:45.286Z,12.70
2023-04-15T16:13:46.384Z,13.60
2023-04-15T16:17:47.581Z,13.90
2023-04-15T16:21:48.881Z,13.80
2023-04-15T16:25:50.913Z,13.40
2023-04-15T16:29:52.299Z,13.20
2023-04-15T16:33:53.483Z,13.00
2023-04-15T16:37:54.775Z,12.70
2023-04-15T16:41:56.934Z,12.60
2023-04-15T16:45:58.151Z,12.40
2023-04-15T16:49:59.703Z,12.40
2023-04-15T16:54:00.836Z,12.30
2023-04-15T16:58:03.930Z,12.20
2023-04-15T17:02:05.041Z,12.30
2023-04-15T17:06:06.238Z,12.30
2023-04-15T17:10:09.408Z,12.30
2023-04-15T17:14:10.790Z,12.30
2023-04-15T17:18:12.082Z,12.20
2023-04-15T17:22:13.305Z,12.20
2023-04-15T17:26:14.522Z,12.30
2023-04-15T17:30:16.111Z,12.20
2023-04-15T17:34:18.666Z,12.20
2023-04-15T17:38:19.855Z,12.20
2023-04-15T17:42:22.526Z,12.10
2023-04-15T17:46:24.903Z,12.00
2023-04-15T17:50:26.930Z,12.10
2023-04-15T17:54:28.946Z,11.80
2023-04-15T17:58:30.761Z,11.70
2023-04-15T18:02:33.894Z,11.60
2023-04-15T18:06:36.148Z,11.50
2023-04-15T18:10:38.570Z,11.50
2023-04-15T18:14:40.339Z,11.30
2023-04-15T18:18:41.491Z,11.20
2023-04-15T18:22:42.956Z,11.00
2023-04-15T18:26:44.475Z,11.20
2023-04-15T18:30:46.454Z,11.30
2023-04-15T18:34:48.381Z,11.30
2023-04-15T18:38:49.951Z,11.00
2023-04-15T18:42:52.004Z,10.90
2023-04-15T18:46:53.883Z,11.00
2023-04-15T18:50:57.539Z,11.10
2023-04-15T18:54:58.706Z,11.10
2023-04-15T18:59:26.075Z,11.00
2023-04-15T19:03:05.767Z,10.90
2023-04-15T19:07:09.280Z,11.00
2023-04-15T19:11:10.939Z,11.00
2023-04-15T19:15:12.562Z,11.00
2023-04-15T19:19:14.987Z,10.90
2023-04-15T19:23:16.283Z,11.00
2023-04-15T19:27:17.831Z,11.10
2023-04-15T19:31:23.251Z,11.10
2023-04-15T19:35:25.394Z,11.30
2023-04-15T19:39:29.796Z,11.40
2023-04-15T19:43:32.272Z,11.50
2023-04-15T19:47:34.769Z,11.60
2023-04-15T19:51:36.081Z,11.70
2023-04-15T19:55:38.633Z,11.70
2023-04-15T19:59:40.252Z,11.80
2023-04-15T20:03:42.148Z,11.80
2023-04-15T20:07:46.598Z,11.90
2023-04-15T20:12:46.637Z,11.90
2023-04-15T20:15:51.966Z,11.90
2023-04-15T20:19:53.437Z,11.90
2023-04-15T20:23:55.097Z,11.90
2023-04-15T20:28:00.392Z,11.80
2023-04-15T20:32:02.074Z,11.80
2023-04-15T20:36:03.712Z,11.50
2023-04-15T20:40:06.849Z,11.60
2023-04-15T20:44:08.310Z,11.60
2023-04-15T20:48:10.640Z,11.70
2023-04-15T20:52:12.907Z,11.70
2023-04-15T20:56:14.894Z,11.80
2023-04-15T21:00:16.683Z,11.80
2023-04-15T21:04:18.740Z,11.80
2023-04-15T21:08:22.786Z,11.90
2023-04-15T21:12:24.842Z,11.90
2023-04-15T21:16:26.820Z,11.90
2023-04-15T21:20:28.419Z,11.90
2023-04-15T21:24:30.685Z,11.90
2023-04-15T21:28:32.642Z,11.90
2023-04-15T21:32:34.329Z,11.90
2023-04-15T21:36:37.369Z,11.80
2023-04-15T21:40:40.263Z,11.80
2023-04-15T21:44:42.371Z,11.70
2023-04-15T21:48:45.451Z,11.60
2023-04-15T21:52:46.593Z,11.70
2023-04-15T21:56:49.841Z,11.60
2023-04-15T22:00:55.035Z,11.70
2023-04-15T22:04:56.748Z,11.70
2023-04-15T22:08:58.478Z,11.70
2023-04-15T22:13:02.249Z,11.50
2023-04-15T22:17:03.715Z,11.50
2023-04-15T22:21:05.552Z,11.50
2023-04-15T22:25:08.225Z,11.50
2023-04-15T22:29:10.529Z,11.30
2023-04-15T22:33:12.010Z,11.30
2023-04-15T22:37:13.422Z,11.20
2023-04-15T22:41:15.036Z,11.30
2023-04-15T22:45:16.514Z,11.20
2023-04-15T22:49:18.470Z,11.20
2023-04-15T22:53:20.514Z,11.20
2023-04-15T22:57:22.077Z,11.30
2023-04-15T23:01:23.696Z,11.50
2023-04-15T23:05:25.132Z,11.60
2023-04-15T23:09:26.881Z,11.60
2023-04-15T23:13:28.741Z,11.50
2023-04-15T23:17:30.613Z,11.30
2023-04-15T23:21:32.268Z,11.40
2023-04-15T23:25:33.416Z,11.30
2023-04-15T23:29:36.088Z,11.30
2023-04-15T23:33:38.728Z,11.20
2023-04-15T23:37:40.690Z,11.10
2023-04-15T23:41:42.258Z,11.10
2023-04-15T23:45:43.803Z,11.10
2023-04-15T23:49:45.729Z,11.00
2023-04-15T23:53:48.419Z,11.20
2023-04-15T23:57:49.861Z,11.20
